sensor_id;sensor_type;location;lat;lon;timestamp;P1;durP1;ratioP1;P2;durP2;ratioP2
50651;SDS011;61429;52.086;5.240;2022-08-30T00:02:32;8.1;;;5.0;;
50651;SDS011;61429;52.086;5.240;2022-08-30T00:05:44;7.4;;;4.91;;
50651;SDS011;61429;52.086;5.240;2022-08-30T00:07:21;5.6;;;5.0;;
50651;SDS011;61429;52.086;5.240;2022-08-30T00:08:58;6.9;;;5.0;;
50651;SDS011;61429;52.086;5.240;2022-08-30T00:10:34;8.31;;;5.11;;
50651;SDS011;61429;52.086;5.240;2022-08-30T00:13:49;8.6;;;5.2;;
50651;SDS011;61429;52.086;5.240;2022-08-30T00:15:28;6.9;;;5.0;;
50651;SDS011;61429;52.086;5.240;2022-08-30T00:17:04;6.9;;;5.0;;
50651;SDS011;61429;52.086;5.240;2022-08-30T00:20:20;7.1;;;5.5;;
50651;SDS011;61429;52.086;5.240;2022-08-30T00:22:03;6.7;;;5.0;;
50651;SDS011;61429;52.086;5.240;2022-08-30T00:23:40;6.7;;;5.2;;
50651;SDS011;61429;52.086;5.240;2022-08-30T00:25:18;7.0;;;5.5;;
50651;SDS011;61429;52.086;5.240;2022-08-30T00:28:32;6.5;;;5.8;;
50651;SDS011;61429;52.086;5.240;2022-08-30T00:30:10;5.3;;;4.8;;
50651;SDS011;61429;52.086;5.240;2022-08-30T00:31:49;6.3;;;5.2;;
50651;SDS011;61429;52.086;5.240;2022-08-30T00:35:03;6.5;;;4.8;;
50651;SDS011;61429;52.086;5.240;2022-08-30T00:36:41;6.5;;;4.8;;
50651;SDS011;61429;52.086;5.240;2022-08-30T00:38:17;6.1;;;5.11;;
50651;SDS011;61429;52.086;5.240;2022-08-30T00:39:54;8.5;;;5.11;;
50651;SDS011;61429;52.086;5.240;2022-08-30T00:43:06;7.6;;;4.91;;
50651;SDS011;61429;52.086;5.240;2022-08-30T00:44:49;6.3;;;5.3;;
50651;SDS011;61429;52.086;5.240;2022-08-30T00:46:27;6.3;;;5.4;;
50651;SDS011;61429;52.086;5.240;2022-08-30T00:49:43;8.1;;;5.5;;
50651;SDS011;61429;52.086;5.240;2022-08-30T00:51:24;6.3;;;5.2;;
50651;SDS011;61429;52.086;5.240;2022-08-30T00:53:02;6.2;;;5.2;;
50651;SDS011;61429;52.086;5.240;2022-08-30T00:54:44;6.6;;;5.3;;
50651;SDS011;61429;52.086;5.240;2022-08-30T00:58:02;6.8;;;5.11;;
50651;SDS011;61429;52.086;5.240;2022-08-30T00:59:42;7.4;;;5.4;;
50651;SDS011;61429;52.086;5.240;2022-08-30T01:01:20;6.3;;;5.6;;
50651;SDS011;61429;52.086;5.240;2022-08-30T01:02:57;7.1;;;5.9;;
50651;SDS011;61429;52.086;5.240;2022-08-30T01:06:14;7.4;;;5.4;;
50651;SDS011;61429;52.086;5.240;2022-08-30T01:07:52;6.9;;;5.6;;
50651;SDS011;61429;52.086;5.240;2022-08-30T01:09:28;6.7;;;6.0;;
50651;SDS011;61429;52.086;5.240;2022-08-30T01:12:42;6.6;;;5.5;;
50651;SDS011;61429;52.086;5.240;2022-08-30T01:14:21;7.2;;;6.2;;
50651;SDS011;61429;52.086;5.240;2022-08-30T01:15:58;7.1;;;6.4;;
50651;SDS011;61429;52.086;5.240;2022-08-30T01:17:36;6.7;;;6.0;;
50651;SDS011;61429;52.086;5.240;2022-08-30T01:21:06;6.6;;;6.0;;
50651;SDS011;61429;52.086;5.240;2022-08-30T01:23:07;6.3;;;5.7;;
50651;SDS011;61429;52.086;5.240;2022-08-30T01:24:47;7.1;;;6.4;;
50651;SDS011;61429;52.086;5.240;2022-08-30T01:26:26;7.3;;;6.6;;
50651;SDS011;61429;52.086;5.240;2022-08-30T01:28:06;7.9;;;6.8;;
50651;SDS011;61429;52.086;5.240;2022-08-30T01:31:21;7.5;;;6.4;;
50651;SDS011;61429;52.086;5.240;2022-08-30T01:32:58;7.3;;;6.6;;
50651;SDS011;61429;52.086;5.240;2022-08-30T01:34:37;8.71;;;6.7;;
50651;SDS011;61429;52.086;5.240;2022-08-30T01:36:14;8.71;;;6.7;;
50651;SDS011;61429;52.086;5.240;2022-08-30T01:39:26;7.6;;;6.9;;
50651;SDS011;61429;52.086;5.240;2022-08-30T01:41:07;8.1;;;7.2;;
50651;SDS011;61429;52.086;5.240;2022-08-30T01:42:45;9.81;;;7.8;;
50651;SDS011;61429;52.086;5.240;2022-08-30T01:46:01;7.6;;;6.8;;
50651;SDS011;61429;52.086;5.240;2022-08-30T01:47:38;7.6;;;6.8;;
50651;SDS011;61429;52.086;5.240;2022-08-30T01:49:16;7.9;;;7.2;;
50651;SDS011;61429;52.086;5.240;2022-08-30T01:50:54;7.7;;;7.0;;
50651;SDS011;61429;52.086;5.240;2022-08-30T01:54:08;7.8;;;7.1;;
50651;SDS011;61429;52.086;5.240;2022-08-30T01:55:45;7.5;;;6.8;;
50651;SDS011;61429;52.086;5.240;2022-08-30T01:57:22;8.1;;;7.3;;
50651;SDS011;61429;52.086;5.240;2022-08-30T02:00:37;8.5;;;7.7;;
50651;SDS011;61429;52.086;5.240;2022-08-30T02:02:15;7.8;;;7.1;;
50651;SDS011;61429;52.086;5.240;2022-08-30T02:03:54;7.8;;;7.0;;
50651;SDS011;61429;52.086;5.240;2022-08-30T02:05:32;8.6;;;7.3;;
50651;SDS011;61429;52.086;5.240;2022-08-30T02:08:46;8.5;;;7.7;;
50651;SDS011;61429;52.086;5.240;2022-08-30T02:10:23;8.4;;;7.3;;
50651;SDS011;61429;52.086;5.240;2022-08-30T02:11:59;8.81;;;8.1;;
50651;SDS011;61429;52.086;5.240;2022-08-30T02:15:15;8.9;;;8.0;;
50651;SDS011;61429;52.086;5.240;2022-08-30T02:16:52;8.6;;;7.5;;
50651;SDS011;61429;52.086;5.240;2022-08-30T02:18:28;10.4;;;8.1;;
50651;SDS011;61429;52.086;5.240;2022-08-30T02:21:42;8.5;;;7.7;;
50651;SDS011;61429;52.086;5.240;2022-08-30T02:23:18;9.21;;;8.1;;
50651;SDS011;61429;52.086;5.240;2022-08-30T02:24:54;9.6;;;8.71;;
50651;SDS011;61429;52.086;5.240;2022-08-30T02:26:31;9.5;;;8.5;;
50651;SDS011;61429;52.086;5.240;2022-08-30T02:29:45;9.21;;;8.31;;
50651;SDS011;61429;52.086;5.240;2022-08-30T02:31:21;9.71;;;8.71;;
50651;SDS011;61429;52.086;5.240;2022-08-30T02:32:57;10.4;;;9.31;;
50651;SDS011;61429;52.086;5.240;2022-08-30T02:36:11;8.71;;;7.9;;
50651;SDS011;61429;52.086;5.240;2022-08-30T02:37:48;9.21;;;8.31;;
50651;SDS011;61429;52.086;5.240;2022-08-30T02:39:24;9.81;;;8.9;;
50651;SDS011;61429;52.086;5.240;2022-08-30T02:42:36;9.1;;;8.2;;
50651;SDS011;61429;52.086;5.240;2022-08-30T02:44:12;10.4;;;9.31;;
50651;SDS011;61429;52.086;5.240;2022-08-30T02:45:50;9.9;;;8.6;;
50651;SDS011;61429;52.086;5.240;2022-08-30T02:47:26;9.81;;;9.0;;
50651;SDS011;61429;52.086;5.240;2022-08-30T02:50:41;12.6;;;10.1;;
50651;SDS011;61429;52.086;5.240;2022-08-30T02:52:20;9.9;;;9.0;;
50651;SDS011;61429;52.086;5.240;2022-08-30T02:53:56;10.5;;;9.6;;
50651;SDS011;61429;52.086;5.240;2022-08-30T02:57:11;9.81;;;9.0;;
50651;SDS011;61429;52.086;5.240;2022-08-30T02:58:47;10.4;;;9.5;;
50651;SDS011;61429;52.086;5.240;2022-08-30T03:00:23;10.21;;;9.31;;
50651;SDS011;61429;52.086;5.240;2022-08-30T03:03:35;10.9;;;9.9;;
50651;SDS011;61429;52.086;5.240;2022-08-30T03:05:12;10.9;;;9.81;;
50651;SDS011;61429;52.086;5.240;2022-08-30T03:06:51;10.8;;;9.81;;
50651;SDS011;61429;52.086;5.240;2022-08-30T03:08:27;11.1;;;10.21;;
50651;SDS011;61429;52.086;5.240;2022-08-30T03:11:41;10.3;;;9.4;;
50651;SDS011;61429;52.086;5.240;2022-08-30T03:13:17;10.8;;;9.81;;
50651;SDS011;61429;52.086;5.240;2022-08-30T03:14:55;11.7;;;10.7;;
50651;SDS011;61429;52.086;5.240;2022-08-30T03:18:09;12.6;;;11.3;;
50651;SDS011;61429;52.086;5.240;2022-08-30T03:19:46;10.6;;;9.6;;
50651;SDS011;61429;52.086;5.240;2022-08-30T03:21:22;11.9;;;10.8;;
50651;SDS011;61429;52.086;5.240;2022-08-30T03:22:58;11.6;;;10.5;;
50651;SDS011;61429;52.086;5.240;2022-08-30T03:26:13;11.9;;;10.8;;
50651;SDS011;61429;52.086;5.240;2022-08-30T03:27:50;12.1;;;10.9;;
50651;SDS011;61429;52.086;5.240;2022-08-30T03:29:27;12.6;;;11.4;;
50651;SDS011;61429;52.086;5.240;2022-08-30T03:32:41;12.1;;;10.9;;
50651;SDS011;61429;52.086;5.240;2022-08-30T03:34:17;11.5;;;10.4;;
50651;SDS011;61429;52.086;5.240;2022-08-30T03:35:54;12.5;;;11.4;;
50651;SDS011;61429;52.086;5.240;2022-08-30T03:39:08;11.7;;;10.7;;
50651;SDS011;61429;52.086;5.240;2022-08-30T03:40:45;12.3;;;11.1;;
50651;SDS011;61429;52.086;5.240;2022-08-30T03:42:21;12.8;;;11.6;;
50651;SDS011;61429;52.086;5.240;2022-08-30T03:43:59;11.8;;;10.8;;
50651;SDS011;61429;52.086;5.240;2022-08-30T03:47:15;12.1;;;10.9;;
50651;SDS011;61429;52.086;5.240;2022-08-30T03:48:51;12.1;;;10.9;;
50651;SDS011;61429;52.086;5.240;2022-08-30T03:50:29;12.1;;;10.9;;
50651;SDS011;61429;52.086;5.240;2022-08-30T03:53:42;12.0;;;10.8;;
50651;SDS011;61429;52.086;5.240;2022-08-30T03:55:19;12.5;;;11.3;;
50651;SDS011;61429;52.086;5.240;2022-08-30T03:56:56;11.3;;;10.4;;
50651;SDS011;61429;52.086;5.240;2022-08-30T03:58:33;11.6;;;10.6;;
50651;SDS011;61429;52.086;5.240;2022-08-30T04:01:50;12.1;;;11.0;;
50651;SDS011;61429;52.086;5.240;2022-08-30T04:03:26;12.1;;;11.0;;
50651;SDS011;61429;52.086;5.240;2022-08-30T04:05:03;12.2;;;11.1;;
50651;SDS011;61429;52.086;5.240;2022-08-30T04:08:16;12.6;;;11.4;;
50651;SDS011;61429;52.086;5.240;2022-08-30T04:09:53;11.3;;;10.3;;
50651;SDS011;61429;52.086;5.240;2022-08-30T04:11:29;12.2;;;11.1;;
50651;SDS011;61429;52.086;5.240;2022-08-30T04:14:41;11.7;;;10.6;;
50651;SDS011;61429;52.086;5.240;2022-08-30T04:16:18;11.3;;;10.3;;
50651;SDS011;61429;52.086;5.240;2022-08-30T04:17:55;12.6;;;11.6;;
50651;SDS011;61429;52.086;5.240;2022-08-30T04:19:31;11.7;;;10.7;;
50651;SDS011;61429;52.086;5.240;2022-08-30T04:24:20;13.5;;;12.3;;
50651;SDS011;61429;52.086;5.240;2022-08-30T04:25:57;12.7;;;11.5;;
50651;SDS011;61429;52.086;5.240;2022-08-30T04:29:11;12.8;;;11.6;;
50651;SDS011;61429;52.086;5.240;2022-08-30T04:30:47;12.2;;;11.0;;
50651;SDS011;61429;52.086;5.240;2022-08-30T04:32:24;12.3;;;11.2;;
50651;SDS011;61429;52.086;5.240;2022-08-30T04:35:39;13.5;;;12.2;;
50651;SDS011;61429;52.086;5.240;2022-08-30T04:37:17;13.2;;;12.0;;
50651;SDS011;61429;52.086;5.240;2022-08-30T04:38:53;13.1;;;12.0;;
50651;SDS011;61429;52.086;5.240;2022-08-30T04:40:29;12.6;;;11.6;;
50651;SDS011;61429;52.086;5.240;2022-08-30T04:43:42;11.8;;;10.7;;
50651;SDS011;61429;52.086;5.240;2022-08-30T04:45:20;11.3;;;10.3;;
50651;SDS011;61429;52.086;5.240;2022-08-30T04:46:57;12.2;;;11.2;;
50651;SDS011;61429;52.086;5.240;2022-08-30T04:50:14;12.0;;;11.0;;
50651;SDS011;61429;52.086;5.240;2022-08-30T04:51:54;11.9;;;10.9;;
50651;SDS011;61429;52.086;5.240;2022-08-30T04:53:30;12.3;;;11.2;;
50651;SDS011;61429;52.086;5.240;2022-08-30T04:55:08;11.0;;;10.1;;
50651;SDS011;61429;52.086;5.240;2022-08-30T04:58:22;10.9;;;9.9;;
50651;SDS011;61429;52.086;5.240;2022-08-30T04:59:59;12.0;;;10.8;;
50651;SDS011;61429;52.086;5.240;2022-08-30T05:01:37;12.2;;;10.9;;
50651;SDS011;61429;52.086;5.240;2022-08-30T05:05:56;11.9;;;10.9;;
50651;SDS011;61429;52.086;5.240;2022-08-30T05:07:35;10.9;;;9.81;;
50651;SDS011;61429;52.086;5.240;2022-08-30T05:10:49;10.5;;;9.5;;
50651;SDS011;61429;52.086;5.240;2022-08-30T05:12:28;11.0;;;10.1;;
50651;SDS011;61429;52.086;5.240;2022-08-30T05:14:04;11.6;;;10.6;;
50651;SDS011;61429;52.086;5.240;2022-08-30T05:17:19;10.6;;;9.6;;
50651;SDS011;61429;52.086;5.240;2022-08-30T05:18:56;12.3;;;11.1;;
50651;SDS011;61429;52.086;5.240;2022-08-30T05:20:34;11.5;;;10.4;;
50651;SDS011;61429;52.086;5.240;2022-08-30T05:22:11;12.8;;;11.1;;
50651;SDS011;61429;52.086;5.240;2022-08-30T05:25:26;11.4;;;10.4;;
50651;SDS011;61429;52.086;5.240;2022-08-30T05:27:04;10.3;;;9.4;;
50651;SDS011;61429;52.086;5.240;2022-08-30T05:28:41;11.6;;;10.6;;
50651;SDS011;61429;52.086;5.240;2022-08-30T05:31:55;10.9;;;9.9;;
50651;SDS011;61429;52.086;5.240;2022-08-30T05:33:32;11.5;;;10.5;;
50651;SDS011;61429;52.086;5.240;2022-08-30T05:35:09;10.3;;;9.4;;
50651;SDS011;61429;52.086;5.240;2022-08-30T05:36:47;11.3;;;10.3;;
50651;SDS011;61429;52.086;5.240;2022-08-30T05:40:00;10.8;;;9.71;;
50651;SDS011;61429;52.086;5.240;2022-08-30T05:41:37;10.9;;;10.0;;
50651;SDS011;61429;52.086;5.240;2022-08-30T05:43:14;11.2;;;10.21;;
50651;SDS011;61429;52.086;5.240;2022-08-30T05:46:32;10.3;;;9.31;;
50651;SDS011;61429;52.086;5.240;2022-08-30T05:48:09;11.7;;;10.6;;
50651;SDS011;61429;52.086;5.240;2022-08-30T05:49:45;10.9;;;9.9;;
50651;SDS011;61429;52.086;5.240;2022-08-30T05:53:01;12.1;;;10.6;;
50651;SDS011;61429;52.086;5.240;2022-08-30T05:54:37;11.1;;;10.0;;
50651;SDS011;61429;52.086;5.240;2022-08-30T05:56:14;11.3;;;10.3;;
50651;SDS011;61429;52.086;5.240;2022-08-30T05:57:53;10.3;;;9.4;;
50651;SDS011;61429;52.086;5.240;2022-08-30T06:01:05;11.5;;;10.4;;
50651;SDS011;61429;52.086;5.240;2022-08-30T06:02:43;11.1;;;10.1;;
50651;SDS011;61429;52.086;5.240;2022-08-30T06:04:19;11.1;;;10.21;;
50651;SDS011;61429;52.086;5.240;2022-08-30T06:07:31;11.7;;;10.5;;
50651;SDS011;61429;52.086;5.240;2022-08-30T06:09:09;10.3;;;9.31;;
50651;SDS011;61429;52.086;5.240;2022-08-30T06:10:48;10.7;;;9.6;;
50651;SDS011;61429;52.086;5.240;2022-08-30T06:12:25;10.6;;;9.5;;
50651;SDS011;61429;52.086;5.240;2022-08-30T06:15:40;10.6;;;9.6;;
50651;SDS011;61429;52.086;5.240;2022-08-30T06:17:17;10.5;;;9.6;;
50651;SDS011;61429;52.086;5.240;2022-08-30T06:18:53;9.81;;;8.9;;
50651;SDS011;61429;52.086;5.240;2022-08-30T06:22:07;8.1;;;7.4;;
50651;SDS011;61429;52.086;5.240;2022-08-30T06:23:44;8.31;;;7.5;;
50651;SDS011;61429;52.086;5.240;2022-08-30T06:25:21;7.6;;;6.8;;
50651;SDS011;61429;52.086;5.240;2022-08-30T06:28:33;7.2;;;6.5;;
50651;SDS011;61429;52.086;5.240;2022-08-30T06:30:10;6.0;;;5.3;;
50651;SDS011;61429;52.086;5.240;2022-08-30T06:31:48;5.8;;;5.2;;
50651;SDS011;61429;52.086;5.240;2022-08-30T06:33:25;5.8;;;5.3;;
50651;SDS011;61429;52.086;5.240;2022-08-30T06:36:37;7.1;;;5.0;;
50651;SDS011;61429;52.086;5.240;2022-08-30T06:38:15;5.2;;;4.7;;
50651;SDS011;61429;52.086;5.240;2022-08-30T06:39:51;5.3;;;4.8;;
50651;SDS011;61429;52.086;5.240;2022-08-30T06:43:07;5.3;;;4.8;;
50651;SDS011;61429;52.086;5.240;2022-08-30T06:44:44;5.0;;;4.5;;
50651;SDS011;61429;52.086;5.240;2022-08-30T06:46:21;5.7;;;4.91;;
50651;SDS011;61429;52.086;5.240;2022-08-30T06:48:01;4.91;;;4.41;;
50651;SDS011;61429;52.086;5.240;2022-08-30T06:51:14;5.2;;;4.5;;
50651;SDS011;61429;52.086;5.240;2022-08-30T06:52:54;6.0;;;4.3;;
50651;SDS011;61429;52.086;5.240;2022-08-30T06:54:30;4.7;;;4.2;;
50651;SDS011;61429;52.086;5.240;2022-08-30T06:57:46;4.5;;;4.1;;
50651;SDS011;61429;52.086;5.240;2022-08-30T06:59:22;5.0;;;4.0;;
50651;SDS011;61429;52.086;5.240;2022-08-30T07:00:59;4.5;;;4.1;;
50651;SDS011;61429;52.086;5.240;2022-08-30T07:02:36;4.8;;;4.0;;
50651;SDS011;61429;52.086;5.240;2022-08-30T07:05:49;5.4;;;4.0;;
50651;SDS011;61429;52.086;5.240;2022-08-30T07:07:25;5.0;;;3.7;;
50651;SDS011;61429;52.086;5.240;2022-08-30T07:09:02;5.11;;;3.7;;
50651;SDS011;61429;52.086;5.240;2022-08-30T07:12:16;4.3;;;3.4;;
50651;SDS011;61429;52.086;5.240;2022-08-30T07:13:52;5.0;;;3.7;;
50651;SDS011;61429;52.086;5.240;2022-08-30T07:15:28;4.7;;;3.4;;
50651;SDS011;61429;52.086;5.240;2022-08-30T07:20:26;4.3;;;3.0;;
50651;SDS011;61429;52.086;5.240;2022-08-30T07:22:02;5.7;;;3.2;;
50651;SDS011;61429;52.086;5.240;2022-08-30T07:23:39;5.0;;;3.2;;
50651;SDS011;61429;52.086;5.240;2022-08-30T07:26:53;7.5;;;3.0;;
50651;SDS011;61429;52.086;5.240;2022-08-30T07:28:29;5.7;;;2.9;;
50651;SDS011;61429;52.086;5.240;2022-08-30T07:30:06;7.6;;;4.0;;
50651;SDS011;61429;52.086;5.240;2022-08-30T07:33:21;3.9;;;2.5;;
50651;SDS011;61429;52.086;5.240;2022-08-30T07:34:58;6.3;;;2.9;;
50651;SDS011;61429;52.086;5.240;2022-08-30T07:36:35;6.3;;;2.9;;
50651;SDS011;61429;52.086;5.240;2022-08-30T07:38:13;3.8;;;2.6;;
50651;SDS011;61429;52.086;5.240;2022-08-30T07:41:28;4.5;;;2.4;;
50651;SDS011;61429;52.086;5.240;2022-08-30T07:43:06;3.8;;;2.4;;
50651;SDS011;61429;52.086;5.240;2022-08-30T07:44:43;4.41;;;2.21;;
50651;SDS011;61429;52.086;5.240;2022-08-30T07:47:56;4.41;;;2.21;;
50651;SDS011;61429;52.086;5.240;2022-08-30T07:49:33;4.2;;;2.1;;
50651;SDS011;61429;52.086;5.240;2022-08-30T07:51:10;5.0;;;2.0;;
50651;SDS011;61429;52.086;5.240;2022-08-30T07:52:48;2.7;;;2.1;;
50651;SDS011;61429;52.086;5.240;2022-08-30T07:56:01;3.3;;;2.1;;
50651;SDS011;61429;52.086;5.240;2022-08-30T07:57:38;3.2;;;2.0;;
50651;SDS011;61429;52.086;5.240;2022-08-30T07:59:14;3.0;;;2.0;;
50651;SDS011;61429;52.086;5.240;2022-08-30T08:02:27;2.7;;;1.9;;
50651;SDS011;61429;52.086;5.240;2022-08-30T08:04:03;4.91;;;2.21;;
50651;SDS011;61429;52.086;5.240;2022-08-30T08:05:39;4.61;;;1.9;;
50651;SDS011;61429;52.086;5.240;2022-08-30T08:08:56;3.2;;;2.0;;
50651;SDS011;61429;52.086;5.240;2022-08-30T08:10:32;3.2;;;1.7;;
50651;SDS011;61429;52.086;5.240;2022-08-30T08:12:11;3.2;;;1.9;;
50651;SDS011;61429;52.086;5.240;2022-08-30T08:13:47;2.8;;;1.7;;
50651;SDS011;61429;52.086;5.240;2022-08-30T08:17:04;4.3;;;1.9;;
50651;SDS011;61429;52.086;5.240;2022-08-30T08:18:41;3.1;;;1.6;;
50651;SDS011;61429;52.086;5.240;2022-08-30T08:20:17;4.1;;;2.0;;
50651;SDS011;61429;52.086;5.240;2022-08-30T08:23:32;5.3;;;2.0;;
50651;SDS011;61429;52.086;5.240;2022-08-30T08:25:09;5.2;;;2.0;;
50651;SDS011;61429;52.086;5.240;2022-08-30T08:26:45;3.9;;;1.6;;
50651;SDS011;61429;52.086;5.240;2022-08-30T08:28:21;2.21;;;1.6;;
50651;SDS011;61429;52.086;5.240;2022-08-30T08:31:36;2.7;;;1.7;;
50651;SDS011;61429;52.086;5.240;2022-08-30T08:33:13;3.1;;;1.8;;
50651;SDS011;61429;52.086;5.240;2022-08-30T08:34:49;3.7;;;1.5;;
50651;SDS011;61429;52.086;5.240;2022-08-30T08:38:01;2.4;;;1.7;;
50651;SDS011;61429;52.086;5.240;2022-08-30T08:39:38;4.3;;;1.7;;
50651;SDS011;61429;52.086;5.240;2022-08-30T08:41:19;3.8;;;1.9;;
50651;SDS011;61429;52.086;5.240;2022-08-30T08:43:10;2.6;;;1.5;;
50651;SDS011;61429;52.086;5.240;2022-08-30T08:46:35;2.1;;;1.6;;
50651;SDS011;61429;52.086;5.240;2022-08-30T08:48:23;3.3;;;1.8;;
50651;SDS011;61429;52.086;5.240;2022-08-30T08:50:06;2.9;;;1.9;;
50651;SDS011;61429;52.086;5.240;2022-08-30T08:54:40;1.7;;;1.6;;
50651;SDS011;61429;52.086;5.240;2022-08-30T08:56:22;2.5;;;1.7;;
50651;SDS011;61429;52.086;5.240;2022-08-30T08:57:59;2.1;;;1.6;;
50651;SDS011;61429;52.086;5.240;2022-08-30T09:01:16;2.9;;;1.8;;
50651;SDS011;61429;52.086;5.240;2022-08-30T09:02:55;2.21;;;1.8;;
50651;SDS011;61429;52.086;5.240;2022-08-30T09:04:34;2.0;;;1.6;;
50651;SDS011;61429;52.086;5.240;2022-08-30T09:06:22;3.1;;;1.9;;
50651;SDS011;61429;52.086;5.240;2022-08-30T09:08:11;2.8;;;1.8;;
50651;SDS011;61429;52.086;5.240;2022-08-30T09:11:30;2.7;;;1.8;;
50651;SDS011;61429;52.086;5.240;2022-08-30T09:13:09;2.21;;;1.7;;
50651;SDS011;61429;52.086;5.240;2022-08-30T09:14:46;3.1;;;1.9;;
50651;SDS011;61429;52.086;5.240;2022-08-30T09:16:59;4.3;;;2.21;;
50651;SDS011;61429;52.086;5.240;2022-08-30T09:18:40;3.8;;;1.8;;
50651;SDS011;61429;52.086;5.240;2022-08-30T09:22:11;4.7;;;1.9;;
50651;SDS011;61429;52.086;5.240;2022-08-30T09:23:54;3.8;;;1.6;;
50651;SDS011;61429;52.086;5.240;2022-08-30T09:25:33;2.6;;;1.9;;
50651;SDS011;61429;52.086;5.240;2022-08-30T09:27:14;2.5;;;1.8;;
50651;SDS011;61429;52.086;5.240;2022-08-30T09:29:07;2.6;;;1.8;;
50651;SDS011;61429;52.086;5.240;2022-08-30T09:32:37;2.9;;;1.8;;
50651;SDS011;61429;52.086;5.240;2022-08-30T09:34:18;4.1;;;2.0;;
50651;SDS011;61429;52.086;5.240;2022-08-30T09:35:56;3.2;;;1.7;;
50651;SDS011;61429;52.086;5.240;2022-08-30T09:37:51;2.9;;;1.7;;
50651;SDS011;61429;52.086;5.240;2022-08-30T09:39:30;2.7;;;1.8;;
50651;SDS011;61429;52.086;5.240;2022-08-30T09:43:18;3.8;;;1.8;;
50651;SDS011;61429;52.086;5.240;2022-08-30T09:45:17;2.31;;;1.6;;
50651;SDS011;61429;52.086;5.240;2022-08-30T09:47:03;2.9;;;1.6;;
50651;SDS011;61429;52.086;5.240;2022-08-30T09:48:43;2.21;;;1.7;;
50651;SDS011;61429;52.086;5.240;2022-08-30T09:50:21;2.6;;;1.9;;
50651;SDS011;61429;52.086;5.240;2022-08-30T09:52:08;3.3;;;1.7;;
50651;SDS011;61429;52.086;5.240;2022-08-30T09:55:46;3.5;;;1.9;;
50651;SDS011;61429;52.086;5.240;2022-08-30T09:57:44;5.0;;;1.8;;
50651;SDS011;61429;52.086;5.240;2022-08-30T09:59:36;4.0;;;1.8;;
50651;SDS011;61429;52.086;5.240;2022-08-30T10:01:20;4.7;;;2.1;;
50651;SDS011;61429;52.086;5.240;2022-08-30T10:03:02;4.1;;;2.0;;
50651;SDS011;61429;52.086;5.240;2022-08-30T10:04:53;4.91;;;2.0;;
50651;SDS011;61429;52.086;5.240;2022-08-30T10:08:20;3.3;;;1.9;;
50651;SDS011;61429;52.086;5.240;2022-08-30T10:10:10;3.3;;;1.9;;
50651;SDS011;61429;52.086;5.240;2022-08-30T10:11:59;2.21;;;1.8;;
50651;SDS011;61429;52.086;5.240;2022-08-30T10:13:48;4.5;;;1.9;;
50651;SDS011;61429;52.086;5.240;2022-08-30T10:15:37;3.1;;;2.0;;
50651;SDS011;61429;52.086;5.240;2022-08-30T10:17:25;4.0;;;1.8;;
50651;SDS011;61429;52.086;5.240;2022-08-30T10:19:17;3.1;;;1.8;;
50651;SDS011;61429;52.086;5.240;2022-08-30T10:22:49;4.2;;;1.9;;
50651;SDS011;61429;52.086;5.240;2022-08-30T10:24:32;3.3;;;1.7;;
50651;SDS011;61429;52.086;5.240;2022-08-30T10:26:16;2.7;;;1.9;;
50651;SDS011;61429;52.086;5.240;2022-08-30T10:28:04;2.8;;;1.7;;
50651;SDS011;61429;52.086;5.240;2022-08-30T10:29:48;2.31;;;1.6;;
50651;SDS011;61429;52.086;5.240;2022-08-30T10:33:14;2.6;;;1.6;;
50651;SDS011;61429;52.086;5.240;2022-08-30T10:34:56;1.9;;;1.7;;
50651;SDS011;61429;52.086;5.240;2022-08-30T10:36:42;2.1;;;1.7;;
50651;SDS011;61429;52.086;5.240;2022-08-30T10:38:22;2.21;;;1.5;;
50651;SDS011;61429;52.086;5.240;2022-08-30T10:43:00;2.9;;;1.8;;
50651;SDS011;61429;52.086;5.240;2022-08-30T10:44:44;2.0;;;1.8;;
50651;SDS011;61429;52.086;5.240;2022-08-30T10:48:10;3.2;;;1.9;;
50651;SDS011;61429;52.086;5.240;2022-08-30T10:49:56;3.4;;;1.8;;
50651;SDS011;61429;52.086;5.240;2022-08-30T10:51:43;3.0;;;1.8;;
50651;SDS011;61429;52.086;5.240;2022-08-30T10:53:33;3.5;;;1.8;;
50651;SDS011;61429;52.086;5.240;2022-08-30T10:55:18;2.8;;;1.8;;
50651;SDS011;61429;52.086;5.240;2022-08-30T10:56:59;2.8;;;2.0;;
50651;SDS011;61429;52.086;5.240;2022-08-30T11:00:14;2.21;;;1.6;;
50651;SDS011;61429;52.086;5.240;2022-08-30T11:02:14;3.1;;;1.8;;
50651;SDS011;61429;52.086;5.240;2022-08-30T11:04:19;2.1;;;1.7;;
50651;SDS011;61429;52.086;5.240;2022-08-30T11:07:23;3.1;;;1.8;;
50651;SDS011;61429;52.086;5.240;2022-08-30T11:11:11;2.8;;;1.8;;
50651;SDS011;61429;52.086;5.240;2022-08-30T11:12:58;6.0;;;2.0;;
50651;SDS011;61429;52.086;5.240;2022-08-30T11:14:38;2.0;;;1.6;;
50651;SDS011;61429;52.086;5.240;2022-08-30T11:16:18;4.61;;;1.9;;
50651;SDS011;61429;52.086;5.240;2022-08-30T11:18:11;4.0;;;1.8;;
50651;SDS011;61429;52.086;5.240;2022-08-30T11:21:30;2.0;;;1.7;;
50651;SDS011;61429;52.086;5.240;2022-08-30T11:23:14;1.7;;;1.6;;
50651;SDS011;61429;52.086;5.240;2022-08-30T11:25:12;2.31;;;1.8;;
50651;SDS011;61429;52.086;5.240;2022-08-30T11:26:53;3.5;;;1.8;;
50651;SDS011;61429;52.086;5.240;2022-08-30T11:29:08;3.5;;;2.0;;
50651;SDS011;61429;52.086;5.240;2022-08-30T11:30:49;2.0;;;1.8;;
50651;SDS011;61429;52.086;5.240;2022-08-30T11:32:57;3.6;;;1.6;;
50651;SDS011;61429;52.086;5.240;2022-08-30T11:34:55;3.6;;;1.8;;
50651;SDS011;61429;52.086;5.240;2022-08-30T11:40:47;2.8;;;1.8;;
50651;SDS011;61429;52.086;5.240;2022-08-30T11:42:29;2.4;;;1.8;;
50651;SDS011;61429;52.086;5.240;2022-08-30T11:44:27;1.7;;;1.6;;
50651;SDS011;61429;52.086;5.240;2022-08-30T11:46:14;1.9;;;1.7;;
50651;SDS011;61429;52.086;5.240;2022-08-30T11:47:53;4.2;;;1.8;;
50651;SDS011;61429;52.086;5.240;2022-08-30T11:49:35;2.9;;;1.8;;
50651;SDS011;61429;52.086;5.240;2022-08-30T11:52:55;2.8;;;1.8;;
50651;SDS011;61429;52.086;5.240;2022-08-30T11:54:42;4.5;;;1.7;;
50651;SDS011;61429;52.086;5.240;2022-08-30T11:56:33;5.2;;;1.9;;
50651;SDS011;61429;52.086;5.240;2022-08-30T11:58:28;3.1;;;2.21;;
50651;SDS011;61429;52.086;5.240;2022-08-30T12:00:26;3.0;;;2.0;;
50651;SDS011;61429;52.086;5.240;2022-08-30T12:02:06;2.9;;;1.7;;
50651;SDS011;61429;52.086;5.240;2022-08-30T12:06:01;2.8;;;1.8;;
50651;SDS011;61429;52.086;5.240;2022-08-30T12:07:56;3.3;;;2.1;;
50651;SDS011;61429;52.086;5.240;2022-08-30T12:10:19;3.7;;;1.9;;
50651;SDS011;61429;52.086;5.240;2022-08-30T12:12:00;2.5;;;1.8;;
50651;SDS011;61429;52.086;5.240;2022-08-30T12:13:54;4.0;;;1.9;;
50651;SDS011;61429;52.086;5.240;2022-08-30T12:18:41;2.6;;;1.9;;
50651;SDS011;61429;52.086;5.240;2022-08-30T12:20:23;3.7;;;2.21;;
50651;SDS011;61429;52.086;5.240;2022-08-30T12:22:04;4.2;;;2.0;;
50651;SDS011;61429;52.086;5.240;2022-08-30T12:23:45;3.3;;;2.1;;
50651;SDS011;61429;52.086;5.240;2022-08-30T12:25:28;4.2;;;2.21;;
50651;SDS011;61429;52.086;5.240;2022-08-30T12:27:19;2.5;;;2.0;;
50651;SDS011;61429;52.086;5.240;2022-08-30T12:29:13;2.8;;;2.0;;
50651;SDS011;61429;52.086;5.240;2022-08-30T12:32:31;3.3;;;2.21;;
50651;SDS011;61429;52.086;5.240;2022-08-30T12:34:14;3.6;;;2.21;;
50651;SDS011;61429;52.086;5.240;2022-08-30T12:35:58;2.5;;;2.0;;
50651;SDS011;61429;52.086;5.240;2022-08-30T12:37:35;2.21;;;2.0;;
50651;SDS011;61429;52.086;5.240;2022-08-30T12:40:58;3.3;;;2.1;;
50651;SDS011;61429;52.086;5.240;2022-08-30T12:42:37;3.8;;;2.21;;
50651;SDS011;61429;52.086;5.240;2022-08-30T12:44:17;2.6;;;2.31;;
50651;SDS011;61429;52.086;5.240;2022-08-30T12:45:57;2.7;;;2.1;;
50651;SDS011;61429;52.086;5.240;2022-08-30T12:49:20;2.9;;;2.31;;
50651;SDS011;61429;52.086;5.240;2022-08-30T12:51:02;4.0;;;2.1;;
50651;SDS011;61429;52.086;5.240;2022-08-30T12:52:40;3.3;;;1.8;;
50651;SDS011;61429;52.086;5.240;2022-08-30T12:54:22;4.5;;;2.1;;
50651;SDS011;61429;52.086;5.240;2022-08-30T12:57:53;2.8;;;2.1;;
50651;SDS011;61429;52.086;5.240;2022-08-30T12:59:37;3.7;;;2.21;;
50651;SDS011;61429;52.086;5.240;2022-08-30T13:01:24;3.3;;;2.31;;
50651;SDS011;61429;52.086;5.240;2022-08-30T13:03:03;3.8;;;2.21;;
50651;SDS011;61429;52.086;5.240;2022-08-30T13:05:25;3.5;;;2.21;;
50651;SDS011;61429;52.086;5.240;2022-08-30T13:07:24;3.6;;;2.1;;
50651;SDS011;61429;52.086;5.240;2022-08-30T13:09:20;2.5;;;2.1;;